createdAt,value
2019-04-30T00:00:15.837Z,5.90
2019-04-30T00:01:15.216Z,6.10
2019-04-30T00:02:15.749Z,4.90
2019-04-30T00:03:15.993Z,4.40
2019-04-30T00:04:13.441Z,4.50
2019-04-30T00:05:15.176Z,5.70
2019-04-30T00:06:13.415Z,5.60
2019-04-30T00:07:17.435Z,5.30
2019-04-30T00:08:13.396Z,4.60
2019-04-30T00:09:15.162Z,6.40
2019-04-30T00:10:15.377Z,4.70
2019-04-30T00:11:17.928Z,5.20
2019-04-30T00:12:13.386Z,4.70
2019-04-30T00:13:17.542Z,5.20
2019-04-30T00:14:15.162Z,4.50
2019-04-30T00:15:17.904Z,4.20
2019-04-30T00:16:15.234Z,4.30
2019-04-30T00:17:15.966Z,4.70
2019-04-30T00:18:15.425Z,3.90
2019-04-30T00:19:15.788Z,4.80
2019-04-30T00:20:15.125Z,4.70
2019-04-30T00:21:15.095Z,5.40
2019-04-30T00:22:13.269Z,5.30
2019-04-30T00:23:12.238Z,5.40
2019-04-30T00:24:12.234Z,5.80
2019-04-30T00:25:12.224Z,5.70
2019-04-30T00:26:12.216Z,4.50
2019-04-30T00:27:12.197Z,5.50
2019-04-30T00:28:12.203Z,4.70
2019-04-30T00:29:12.178Z,5.20
2019-04-30T00:30:12.163Z,3.90
2019-04-30T00:31:12.160Z,5.20
2019-04-30T00:32:12.155Z,4.70
2019-04-30T00:33:15.323Z,4.70
2019-04-30T00:34:14.817Z,4.50
2019-04-30T00:35:16.220Z,4.30
2019-04-30T00:36:14.804Z,6.60
2019-04-30T00:37:13.744Z,4.00
2019-04-30T00:38:12.091Z,4.50
2019-04-30T00:39:13.381Z,4.20
2019-04-30T00:40:12.060Z,5.40
2019-04-30T00:41:12.068Z,4.50
2019-04-30T00:42:12.050Z,3.90
2019-04-30T00:43:12.057Z,5.00
2019-04-30T00:44:12.019Z,5.50
2019-04-30T00:45:12.009Z,3.90
2019-04-30T00:46:11.997Z,5.00
2019-04-30T00:47:11.989Z,4.40
2019-04-30T00:48:11.979Z,4.60
2019-04-30T00:49:16.140Z,5.00
2019-04-30T00:50:14.855Z,4.60
2019-04-30T00:51:17.676Z,6.30
2019-04-30T00:52:12.932Z,5.30
2019-04-30T00:53:14.033Z,4.60
2019-04-30T00:54:11.923Z,4.20
2019-04-30T00:55:11.906Z,4.20
2019-04-30T00:56:11.900Z,4.00
2019-04-30T00:57:11.881Z,4.00
2019-04-30T00:58:11.874Z,5.10
2019-04-30T00:59:11.918Z,5.30
2019-04-30T01:00:11.852Z,4.10
2019-04-30T01:01:11.840Z,3.80
2019-04-30T01:02:11.840Z,4.00
2019-04-30T01:03:11.819Z,4.00
2019-04-30T01:04:11.831Z,5.80
2019-04-30T01:05:11.794Z,3.70
2019-04-30T01:06:11.786Z,4.60
2019-04-30T01:07:11.774Z,3.60
2019-04-30T01:08:11.767Z,4.90
2019-04-30T01:09:11.755Z,4.50
2019-04-30T01:10:11.765Z,4.40
2019-04-30T01:11:11.738Z,5.30
2019-04-30T01:12:11.729Z,4.50
2019-04-30T01:13:12.114Z,4.10
2019-04-30T01:14:11.701Z,4.00
2019-04-30T01:15:14.506Z,3.90
2019-04-30T01:16:11.682Z,6.30
2019-04-30T01:17:12.388Z,5.30
2019-04-30T01:18:11.673Z,3.20
2019-04-30T01:19:26.497Z,3.20
2019-04-30T01:20:12.656Z,4.20
2019-04-30T01:21:11.631Z,3.70
2019-04-30T01:22:11.615Z,4.70
2019-04-30T01:23:11.611Z,4.00
2019-04-30T01:24:11.598Z,4.10
2019-04-30T01:25:13.456Z,5.30
2019-04-30T01:26:11.586Z,3.80
2019-04-30T01:27:11.565Z,3.70
2019-04-30T01:28:11.555Z,5.80
2019-04-30T01:29:11.550Z,3.80
2019-04-30T01:30:13.390Z,3.50
2019-04-30T01:31:12.522Z,3.80
2019-04-30T01:32:17.348Z,4.30
2019-04-30T01:33:12.506Z,4.30
2019-04-30T01:34:14.006Z,3.50
2019-04-30T01:35:11.532Z,3.30
2019-04-30T01:36:13.336Z,4.20
2019-04-30T01:37:11.464Z,3.60
2019-04-30T01:38:12.799Z,3.80
2019-04-30T01:39:11.443Z,3.40
2019-04-30T01:40:13.947Z,3.70
2019-04-30T01:41:11.424Z,4.00
2019-04-30T01:42:11.582Z,4.90
2019-04-30T01:43:11.400Z,4.20
2019-04-30T01:44:11.930Z,3.00
2019-04-30T01:45:11.390Z,3.60
2019-04-30T01:46:13.909Z,3.70
2019-04-30T01:47:11.357Z,3.70
2019-04-30T01:48:12.704Z,3.60
2019-04-30T01:49:11.333Z,3.40
2019-04-30T01:50:11.333Z,4.90
2019-04-30T01:51:13.337Z,4.60
2019-04-30T01:52:12.294Z,3.20
2019-04-30T01:53:13.153Z,3.30
2019-04-30T01:54:13.691Z,3.40
2019-04-30T01:55:12.394Z,4.10
2019-04-30T01:56:11.255Z,4.90
2019-04-30T01:57:11.245Z,3.80
2019-04-30T01:58:11.232Z,3.50
2019-04-30T01:59:11.218Z,3.30
2019-04-30T02:00:11.235Z,4.60
2019-04-30T02:01:11.202Z,3.30
2019-04-30T02:02:11.193Z,4.20
2019-04-30T02:03:11.352Z,4.00
2019-04-30T02:04:11.171Z,3.50
2019-04-30T02:05:11.181Z,3.10
2019-04-30T02:06:11.600Z,3.00
2019-04-30T02:07:11.162Z,4.00
2019-04-30T02:08:11.130Z,3.80
2019-04-30T02:09:11.116Z,3.40
2019-04-30T02:10:11.128Z,3.00
2019-04-30T02:11:11.094Z,3.60
2019-04-30T02:12:11.085Z,4.10
2019-04-30T02:13:11.078Z,2.90
2019-04-30T02:14:11.065Z,3.30
2019-04-30T02:15:11.055Z,3.10
2019-04-30T02:16:11.059Z,4.00
2019-04-30T02:17:11.050Z,3.20
2019-04-30T02:18:11.023Z,3.40
2019-04-30T02:19:12.027Z,3.90
2019-04-30T02:20:11.001Z,3.70
2019-04-30T02:21:11.442Z,3.30
2019-04-30T02:22:10.986Z,3.70
2019-04-30T02:23:10.970Z,5.00
2019-04-30T02:24:11.145Z,3.90
2019-04-30T02:25:10.946Z,3.60
2019-04-30T02:26:10.953Z,3.00
2019-04-30T02:27:10.921Z,3.30
2019-04-30T02:28:10.917Z,4.30
2019-04-30T02:29:10.912Z,3.70
2019-04-30T02:30:11.475Z,3.80
2019-04-30T02:31:10.941Z,2.80
2019-04-30T02:32:10.886Z,3.80
2019-04-30T02:33:10.867Z,4.40
2019-04-30T02:34:10.851Z,3.50
2019-04-30T02:35:10.841Z,4.00
2019-04-30T02:36:10.892Z,2.80
2019-04-30T02:37:10.819Z,3.00
2019-04-30T02:38:10.839Z,3.30
2019-04-30T02:39:11.236Z,3.40
2019-04-30T02:40:10.790Z,3.20
2019-04-30T02:41:10.793Z,3.90
2019-04-30T02:42:13.172Z,3.30
2019-04-30T02:43:10.758Z,3.60
2019-04-30T02:44:10.752Z,2.50
2019-04-30T02:45:10.746Z,3.80
2019-04-30T02:46:10.739Z,4.70
2019-04-30T02:47:10.721Z,3.00
2019-04-30T02:48:11.723Z,4.40
2019-04-30T02:49:10.886Z,4.00
2019-04-30T02:50:18.160Z,2.60
2019-04-30T02:51:11.690Z,6.60
2019-04-30T02:52:10.667Z,3.80
2019-04-30T02:53:10.654Z,3.50
2019-04-30T02:54:10.648Z,3.50
2019-04-30T02:55:10.636Z,3.20
2019-04-30T02:56:10.629Z,2.90
2019-04-30T02:57:11.629Z,4.70
2019-04-30T02:58:10.599Z,3.40
2019-04-30T02:59:10.587Z,4.20
2019-04-30T03:00:10.594Z,4.40
2019-04-30T03:01:10.608Z,3.90
2019-04-30T03:02:11.781Z,4.60
2019-04-30T03:03:10.542Z,2.70
2019-04-30T03:04:10.529Z,3.00
2019-04-30T03:05:13.789Z,3.70
2019-04-30T03:06:11.580Z,4.70
2019-04-30T03:07:10.513Z,3.50
2019-04-30T03:08:10.492Z,4.00
2019-04-30T03:09:10.962Z,3.20
2019-04-30T03:10:10.465Z,4.10
2019-04-30T03:11:10.454Z,3.10
2019-04-30T03:12:10.469Z,3.80
2019-04-30T03:13:10.434Z,4.30
2019-04-30T03:14:10.897Z,3.00
2019-04-30T03:15:10.407Z,3.50
2019-04-30T03:16:10.404Z,4.10
2019-04-30T03:17:10.468Z,3.10
2019-04-30T03:18:10.375Z,3.30
2019-04-30T03:19:10.371Z,3.70
2019-04-30T03:20:10.743Z,4.10
2019-04-30T03:21:11.395Z,2.90
2019-04-30T03:22:10.429Z,3.20
2019-04-30T03:23:10.334Z,3.10
2019-04-30T03:24:10.946Z,3.70
2019-04-30T03:25:10.343Z,3.70
2019-04-30T03:26:13.027Z,2.70
2019-04-30T03:27:10.296Z,3.40
2019-04-30T03:28:10.538Z,4.20
2019-04-30T03:29:11.111Z,4.10
2019-04-30T03:30:11.826Z,3.10
2019-04-30T03:31:12.485Z,3.50
2019-04-30T03:32:13.479Z,4.20
2019-04-30T03:33:12.691Z,2.70
2019-04-30T03:34:16.987Z,3.70
2019-04-30T03:35:12.666Z,4.30
2019-04-30T03:36:12.679Z,3.30
2019-04-30T03:37:10.238Z,2.70
2019-04-30T03:38:10.161Z,4.40
2019-04-30T03:39:11.408Z,3.80
2019-04-30T03:40:13.162Z,3.20
2019-04-30T03:41:10.141Z,4.30
2019-04-30T03:42:10.261Z,3.40
2019-04-30T03:43:10.478Z,4.50
2019-04-30T03:44:20.897Z,3.10
2019-04-30T03:45:11.097Z,3.60
2019-04-30T03:46:10.304Z,3.10
2019-04-30T03:47:11.063Z,3.50
2019-04-30T03:48:10.398Z,4.40
2019-04-30T03:49:12.849Z,2.90
2019-04-30T03:50:10.039Z,4.00
2019-04-30T03:51:10.784Z,3.60
2019-04-30T03:52:13.316Z,2.80
2019-04-30T03:53:10.480Z,2.90
2019-04-30T03:54:10.501Z,3.00
2019-04-30T03:55:09.980Z,3.40
2019-04-30T03:56:09.969Z,3.90
2019-04-30T03:57:10.648Z,4.80
2019-04-30T03:58:10.025Z,3.80
2019-04-30T03:59:10.842Z,4.60
2019-04-30T04:00:09.943Z,4.10
2019-04-30T04:01:10.331Z,3.90
2019-04-30T04:02:12.753Z,3.50
2019-04-30T04:03:10.308Z,3.40
2019-04-30T04:04:10.206Z,3.40
2019-04-30T04:05:10.334Z,3.80
2019-04-30T04:06:09.870Z,3.80
2019-04-30T04:07:10.328Z,3.80
2019-04-30T04:08:09.855Z,4.40
2019-04-30T04:09:10.363Z,3.10
2019-04-30T04:10:10.274Z,6.50
2019-04-30T04:11:10.181Z,3.80
2019-04-30T04:12:12.040Z,5.60
2019-04-30T04:13:10.391Z,3.90
2019-04-30T04:14:09.779Z,4.10
2019-04-30T04:15:10.422Z,4.80
2019-04-30T04:16:09.900Z,4.30
2019-04-30T04:17:09.967Z,3.30
2019-04-30T04:18:10.667Z,4.10
2019-04-30T04:19:09.752Z,4.20
2019-04-30T04:20:10.543Z,3.80
2019-04-30T04:21:16.208Z,6.00
2019-04-30T04:22:12.353Z,3.30
2019-04-30T04:23:09.830Z,3.80
2019-04-30T04:24:10.627Z,5.00
2019-04-30T04:25:13.220Z,3.40
2019-04-30T04:26:09.674Z,3.30
2019-04-30T04:27:09.805Z,3.30
2019-04-30T04:28:10.210Z,4.40
2019-04-30T04:29:12.454Z,3.70
2019-04-30T04:30:10.626Z,3.40
2019-04-30T04:31:09.672Z,4.90
2019-04-30T04:32:10.599Z,3.90
2019-04-30T04:33:10.201Z,4.00
2019-04-30T04:34:09.581Z,3.90
2019-04-30T04:35:12.740Z,4.00
2019-04-30T04:36:09.542Z,3.90
2019-04-30T04:37:10.174Z,4.80
2019-04-30T04:38:12.279Z,4.40
2019-04-30T04:39:09.919Z,6.40
2019-04-30T04:40:09.516Z,5.30
2019-04-30T04:41:10.382Z,5.30
2019-04-30T04:42:10.186Z,4.80
2019-04-30T04:43:10.385Z,3.60
2019-04-30T04:44:12.775Z,8.50
2019-04-30T04:45:10.043Z,5.20
2019-04-30T04:46:09.487Z,4.20
2019-04-30T04:47:09.890Z,4.60
2019-04-30T04:48:09.665Z,5.00
2019-04-30T04:49:09.420Z,5.30
2019-04-30T04:50:10.381Z,5.50
2019-04-30T04:51:26.779Z,6.20
2019-04-30T04:52:10.437Z,6.00
2019-04-30T04:53:11.585Z,5.60
2019-04-30T04:54:10.352Z,4.80
2019-04-30T04:55:10.232Z,5.30
2019-04-30T04:56:10.094Z,9.20
2019-04-30T04:57:17.017Z,5.90
2019-04-30T04:58:12.970Z,9.50
2019-04-30T04:59:10.283Z,7.20
2019-04-30T05:00:10.557Z,10.50
2019-04-30T05:01:11.802Z,12.50
2019-04-30T05:02:09.931Z,12.10
2019-04-30T05:03:09.523Z,10.20
2019-04-30T05:04:11.799Z,9.40
2019-04-30T05:05:09.776Z,10.60
2019-04-30T05:06:11.403Z,10.70
2019-04-30T05:07:09.210Z,11.60
2019-04-30T05:08:09.197Z,11.50
2019-04-30T05:09:09.685Z,10.20
2019-04-30T05:10:09.383Z,13.30
2019-04-30T05:11:09.595Z,10.10
2019-04-30T05:12:09.151Z,9.90
2019-04-30T05:13:09.288Z,15.10
2019-04-30T05:14:10.983Z,11.70
2019-04-30T05:15:09.458Z,13.10
2019-04-30T05:16:09.331Z,14.50
2019-04-30T05:17:09.859Z,14.80
2019-04-30T05:18:09.240Z,9.20
2019-04-30T05:19:09.110Z,9.20
2019-04-30T05:20:09.973Z,14.00
2019-04-30T05:21:09.077Z,11.50
2019-04-30T05:22:09.285Z,9.20
2019-04-30T05:23:09.457Z,9.60
2019-04-30T05:24:09.156Z,10.50
2019-04-30T05:25:09.087Z,9.60
2019-04-30T05:26:10.959Z,10.50
2019-04-30T05:27:09.245Z,10.70
2019-04-30T05:28:08.981Z,13.10
2019-04-30T05:29:09.540Z,7.00
2019-04-30T05:30:11.781Z,9.50
2019-04-30T05:31:08.949Z,7.40
2019-04-30T05:32:09.472Z,9.80
2019-04-30T05:33:08.959Z,11.30
2019-04-30T05:34:10.281Z,11.10
2019-04-30T05:35:09.598Z,10.70
2019-04-30T05:36:09.357Z,8.70
2019-04-30T05:37:09.084Z,8.70
2019-04-30T05:38:09.313Z,9.40
2019-04-30T05:39:08.863Z,7.80
2019-04-30T05:40:09.337Z,7.80
2019-04-30T05:41:09.329Z,7.40
2019-04-30T05:42:08.893Z,8.10
2019-04-30T05:43:11.249Z,7.40
2019-04-30T05:44:09.172Z,6.30
2019-04-30T05:45:09.359Z,8.10
2019-04-30T05:46:10.933Z,7.40
2019-04-30T05:47:09.289Z,9.40
2019-04-30T05:48:08.980Z,9.50
2019-04-30T05:49:09.076Z,10.70
2019-04-30T05:50:09.183Z,7.10
2019-04-30T05:51:09.083Z,11.10
2019-04-30T05:52:09.453Z,9.40
2019-04-30T05:53:09.072Z,8.60
2019-04-30T05:54:09.150Z,6.90
2019-04-30T05:55:08.833Z,6.60
2019-04-30T05:56:09.413Z,6.60
2019-04-30T05:57:09.484Z,8.30
2019-04-30T05:58:09.368Z,8.20
2019-04-30T05:59:09.059Z,8.40
2019-04-30T06:00:09.996Z,6.90
2019-04-30T06:01:09.717Z,6.50
2019-04-30T06:02:08.828Z,7.40
2019-04-30T06:03:09.467Z,10.60
2019-04-30T06:04:09.546Z,7.20
2019-04-30T06:05:08.801Z,6.40
2019-04-30T06:06:09.174Z,6.50
2019-04-30T06:07:08.698Z,6.00
2019-04-30T06:08:09.257Z,7.90
2019-04-30T06:09:14.774Z,7.90
2019-04-30T06:10:09.528Z,11.50
2019-04-30T06:11:09.369Z,8.10
2019-04-30T06:12:11.223Z,11.50
2019-04-30T06:13:09.468Z,7.60
2019-04-30T06:14:08.744Z,9.30
2019-04-30T06:15:09.009Z,7.80
2019-04-30T06:16:08.861Z,7.10
2019-04-30T06:17:09.762Z,7.70
2019-04-30T06:18:13.629Z,7.50
2019-04-30T06:19:09.426Z,9.20
2019-04-30T06:20:17.860Z,7.10
2019-04-30T06:21:09.455Z,7.40
2019-04-30T06:22:10.714Z,7.80
2019-04-30T06:23:09.543Z,7.40
2019-04-30T06:24:10.679Z,7.50
2019-04-30T06:25:10.849Z,10.20
2019-04-30T06:26:10.727Z,10.60
2019-04-30T06:27:10.595Z,8.00
2019-04-30T06:28:09.716Z,7.60
2019-04-30T06:29:09.225Z,5.40
2019-04-30T06:30:09.694Z,8.00
2019-04-30T06:31:09.137Z,5.70
2019-04-30T06:32:08.661Z,5.20
2019-04-30T06:33:09.296Z,6.30
2019-04-30T06:34:08.593Z,9.20
2019-04-30T06:35:09.153Z,8.60
2019-04-30T06:36:08.544Z,5.70
2019-04-30T06:37:09.596Z,5.40
2019-04-30T06:38:08.658Z,6.20
2019-04-30T06:39:08.702Z,7.30
2019-04-30T06:40:11.468Z,5.80
2019-04-30T06:41:08.715Z,6.70
2019-04-30T06:42:12.653Z,4.90
2019-04-30T06:43:09.184Z,5.00
2019-04-30T06:44:09.668Z,5.50
2019-04-30T06:45:09.168Z,4.40
2019-04-30T06:46:08.821Z,6.30
2019-04-30T06:47:09.115Z,6.10
2019-04-30T06:48:09.007Z,4.70
2019-04-30T06:49:09.518Z,6.10
2019-04-30T06:50:09.641Z,5.10
2019-04-30T06:51:09.101Z,4.30
2019-04-30T06:52:19.550Z,5.70
2019-04-30T06:53:09.464Z,6.00
2019-04-30T06:54:08.583Z,3.60
2019-04-30T06:55:09.466Z,4.00
2019-04-30T06:56:08.912Z,5.90
2019-04-30T06:57:09.735Z,5.40
2019-04-30T06:58:14.211Z,3.30
2019-04-30T06:59:09.267Z,4.30
2019-04-30T07:00:09.844Z,4.50
2019-04-30T07:01:09.519Z,4.00
2019-04-30T07:02:09.119Z,4.70
2019-04-30T07:03:09.622Z,3.80
2019-04-30T07:04:07.977Z,5.20
2019-04-30T07:05:09.994Z,5.60
2019-04-30T07:06:08.416Z,5.00
2019-04-30T07:07:09.147Z,4.50
2019-04-30T07:08:09.885Z,3.90
2019-04-30T07:09:08.863Z,5.30
2019-04-30T07:10:12.078Z,4.70
2019-04-30T07:11:11.183Z,3.50
2019-04-30T07:12:09.045Z,4.20
2019-04-30T07:13:08.795Z,3.20
2019-04-30T07:14:09.662Z,3.80
2019-04-30T07:15:08.728Z,6.10
2019-04-30T07:16:08.364Z,3.80
2019-04-30T07:17:09.513Z,5.20
2019-04-30T07:18:09.095Z,4.30
2019-04-30T07:19:09.320Z,5.90
2019-04-30T07:20:07.781Z,4.10
2019-04-30T07:21:08.709Z,4.00
2019-04-30T07:22:09.094Z,6.60
2019-04-30T07:23:09.315Z,5.90
2019-04-30T07:24:09.426Z,6.60
2019-04-30T07:25:09.530Z,4.40
2019-04-30T07:26:09.109Z,3.90
2019-04-30T07:27:09.380Z,4.60
2019-04-30T07:28:08.986Z,4.10
2019-04-30T07:29:09.620Z,3.10
2019-04-30T07:30:09.907Z,4.10
2019-04-30T07:31:14.152Z,3.30
2019-04-30T07:32:09.396Z,3.30
2019-04-30T07:33:09.496Z,2.90
2019-04-30T07:34:09.290Z,4.70
2019-04-30T07:35:09.455Z,3.40
2019-04-30T07:36:09.572Z,3.30
2019-04-30T07:37:16.330Z,4.20
2019-04-30T07:38:09.349Z,3.40
2019-04-30T07:39:10.085Z,4.50
2019-04-30T07:40:09.162Z,3.80
2019-04-30T07:41:09.595Z,3.60
2019-04-30T07:42:09.275Z,4.20
2019-04-30T07:43:09.096Z,4.50
2019-04-30T07:44:10.750Z,2.90
2019-04-30T07:45:09.539Z,4.40
2019-04-30T07:46:09.274Z,2.70
2019-04-30T07:47:09.534Z,4.30
2019-04-30T07:48:09.300Z,2.40
2019-04-30T07:49:09.917Z,4.80
2019-04-30T07:50:10.336Z,4.10
2019-04-30T07:51:10.402Z,3.90
2019-04-30T07:52:08.868Z,3.50
2019-04-30T07:53:10.556Z,3.60
2019-04-30T07:54:09.164Z,3.40
2019-04-30T07:55:09.630Z,4.40
2019-04-30T07:56:23.619Z,3.50
2019-04-30T07:57:09.490Z,4.00
2019-04-30T07:58:09.085Z,3.40
2019-04-30T07:59:10.825Z,3.20
2019-04-30T08:00:09.571Z,3.80
2019-04-30T08:01:10.432Z,3.30
2019-04-30T08:02:13.675Z,3.90
2019-04-30T08:03:10.430Z,3.00
2019-04-30T08:04:08.851Z,3.60
2019-04-30T08:05:10.334Z,3.10
2019-04-30T08:06:10.085Z,4.30
2019-04-30T08:07:09.508Z,3.30
2019-04-30T08:08:20.608Z,4.20
2019-04-30T08:09:10.322Z,4.40
2019-04-30T08:10:08.760Z,2.90
2019-04-30T08:11:09.186Z,3.20
2019-04-30T08:12:09.249Z,4.20
2019-04-30T08:13:13.713Z,3.60
2019-04-30T08:14:09.842Z,3.40
2019-04-30T08:15:07.212Z,3.80
2019-04-30T08:16:09.667Z,4.40
2019-04-30T08:17:08.867Z,5.50
2019-04-30T08:18:08.711Z,3.10
2019-04-30T08:19:09.026Z,3.80
2019-04-30T08:20:08.783Z,3.50
2019-04-30T08:21:09.277Z,3.10
2019-04-30T08:22:07.145Z,3.40
2019-04-30T08:23:15.654Z,4.00
2019-04-30T08:24:09.283Z,4.60
2019-04-30T08:25:07.085Z,2.60
2019-04-30T08:26:08.838Z,3.90
2019-04-30T08:27:07.061Z,3.10
2019-04-30T08:28:08.963Z,3.20
2019-04-30T08:29:07.059Z,2.30
2019-04-30T08:30:20.735Z,3.30
2019-04-30T08:31:08.966Z,2.20
2019-04-30T08:32:08.943Z,3.50
2019-04-30T08:33:09.270Z,3.30
2019-04-30T08:34:10.654Z,3.20
2019-04-30T08:35:06.973Z,2.80
2019-04-30T08:36:06.963Z,2.40
2019-04-30T08:37:15.279Z,3.30
2019-04-30T08:38:10.607Z,3.10
2019-04-30T08:39:06.955Z,5.50
2019-04-30T08:40:08.701Z,3.10
2019-04-30T08:41:08.857Z,3.50
2019-04-30T08:42:08.872Z,3.70
2019-04-30T08:43:06.885Z,2.80
2019-04-30T08:44:06.907Z,3.10
2019-04-30T08:45:06.871Z,2.20
2019-04-30T08:46:06.860Z,2.60
2019-04-30T08:47:08.578Z,4.30
2019-04-30T08:48:06.830Z,2.70
2019-04-30T08:49:09.177Z,3.30
2019-04-30T08:50:06.837Z,4.20
2019-04-30T08:51:07.492Z,3.10
2019-04-30T08:52:06.791Z,3.80
2019-04-30T08:53:06.782Z,2.30
2019-04-30T08:54:06.852Z,3.00
2019-04-30T08:55:16.061Z,2.30
2019-04-30T08:56:07.772Z,4.50
2019-04-30T08:57:08.507Z,3.30
2019-04-30T08:58:12.014Z,3.20
2019-04-30T08:59:10.880Z,3.20
2019-04-30T09:00:06.710Z,2.30
2019-04-30T09:01:08.642Z,2.40
2019-04-30T09:02:15.278Z,2.80
2019-04-30T09:03:09.367Z,2.70
2019-04-30T09:04:07.738Z,3.10
2019-04-30T09:05:06.676Z,2.90
2019-04-30T09:06:06.646Z,2.40
2019-04-30T09:07:10.082Z,2.70
2019-04-30T09:08:06.625Z,2.80
2019-04-30T09:09:06.611Z,3.00
2019-04-30T09:10:06.640Z,2.50
2019-04-30T09:11:21.504Z,2.60
2019-04-30T09:12:09.836Z,2.50
2019-04-30T09:13:06.575Z,2.40
2019-04-30T09:14:08.493Z,2.20
2019-04-30T09:15:06.582Z,2.60
2019-04-30T09:16:06.541Z,2.70
2019-04-30T09:17:06.529Z,3.10
2019-04-30T09:18:11.716Z,2.90
2019-04-30T09:19:09.641Z,2.90
2019-04-30T09:20:06.549Z,2.50
2019-04-30T09:21:07.039Z,2.20
2019-04-30T09:22:14.431Z,3.20
2019-04-30T09:23:09.549Z,2.20
2019-04-30T09:24:06.457Z,2.40
2019-04-30T09:25:06.442Z,3.70
2019-04-30T09:26:08.535Z,2.60
2019-04-30T09:27:06.421Z,3.00
2019-04-30T09:28:06.413Z,2.80
2019-04-30T09:29:06.400Z,2.40
2019-04-30T09:30:06.389Z,2.70
2019-04-30T09:31:06.400Z,2.50
2019-04-30T09:32:06.375Z,2.20
2019-04-30T09:33:06.471Z,2.20
2019-04-30T09:34:15.314Z,2.60
2019-04-30T09:35:07.332Z,2.50
2019-04-30T09:36:06.354Z,2.40
2019-04-30T09:37:06.316Z,3.30
2019-04-30T09:38:06.337Z,2.50
2019-04-30T09:39:06.307Z,2.20
2019-04-30T09:40:16.145Z,2.30
2019-04-30T09:41:09.153Z,3.20
2019-04-30T09:42:06.262Z,2.80
2019-04-30T09:43:06.255Z,2.10
2019-04-30T09:44:06.246Z,2.40
2019-04-30T09:45:06.245Z,3.30
2019-04-30T09:46:18.952Z,2.70
2019-04-30T09:47:08.897Z,3.80
2019-04-30T09:48:06.208Z,2.30
2019-04-30T09:49:06.187Z,2.40
2019-04-30T09:50:06.175Z,2.20
2019-04-30T09:51:06.559Z,3.60
2019-04-30T09:52:06.192Z,3.50
2019-04-30T09:53:06.149Z,2.10
2019-04-30T09:54:06.542Z,3.00
2019-04-30T09:55:06.202Z,3.00
2019-04-30T09:56:06.112Z,2.80
2019-04-30T09:57:06.125Z,2.80
2019-04-30T09:58:16.742Z,3.00
2019-04-30T09:59:09.023Z,2.90
2019-04-30T10:00:06.077Z,3.00
2019-04-30T10:01:06.061Z,2.90
2019-04-30T10:02:06.072Z,2.40
2019-04-30T10:03:06.282Z,2.40
2019-04-30T10:04:06.397Z,3.10
2019-04-30T10:05:06.478Z,2.60
2019-04-30T10:06:06.024Z,2.20
2019-04-30T10:07:06.088Z,2.90
2019-04-30T10:08:06.072Z,2.30
2019-04-30T10:09:06.061Z,2.20
2019-04-30T10:10:08.715Z,2.10
2019-04-30T10:11:05.963Z,1.90
2019-04-30T10:12:05.946Z,2.00
2019-04-30T10:13:05.950Z,2.50
2019-04-30T10:14:05.936Z,3.10
2019-04-30T10:15:05.919Z,2.80
2019-04-30T10:16:05.899Z,2.50
2019-04-30T10:17:05.899Z,3.20
2019-04-30T10:18:05.906Z,1.80
2019-04-30T10:19:05.869Z,2.20
2019-04-30T10:20:05.861Z,2.30
2019-04-30T10:21:05.850Z,2.40
2019-04-30T10:22:05.838Z,2.50
2019-04-30T10:23:05.854Z,3.00
2019-04-30T10:24:13.037Z,2.10
2019-04-30T10:25:06.813Z,3.10
2019-04-30T10:26:05.801Z,2.00
2019-04-30T10:27:10.512Z,2.30
2019-04-30T10:28:06.861Z,2.90
2019-04-30T10:29:05.789Z,2.00
2019-04-30T10:30:05.749Z,3.30
2019-04-30T10:31:05.741Z,3.70
2019-04-30T10:32:05.734Z,2.10
2019-04-30T10:33:05.731Z,2.90
2019-04-30T10:34:05.712Z,3.90
2019-04-30T10:35:05.701Z,2.10
2019-04-30T10:36:05.687Z,2.30
2019-04-30T10:37:05.676Z,4.20
2019-04-30T10:38:05.694Z,2.10
2019-04-30T10:39:05.668Z,2.20
2019-04-30T10:40:05.656Z,3.00
2019-04-30T10:41:05.646Z,2.40
2019-04-30T10:42:05.648Z,2.40
2019-04-30T10:43:05.616Z,2.20
2019-04-30T10:44:05.654Z,2.30
2019-04-30T10:45:05.664Z,2.90
2019-04-30T10:46:05.584Z,2.80
2019-04-30T10:47:05.570Z,2.00
2019-04-30T10:48:05.569Z,1.90
2019-04-30T10:49:05.589Z,2.00
2019-04-30T10:50:05.542Z,3.20
2019-04-30T10:51:05.531Z,2.30
2019-04-30T10:52:05.533Z,2.20
2019-04-30T10:53:05.506Z,2.80
2019-04-30T10:54:05.525Z,2.20
2019-04-30T10:55:05.486Z,2.40
2019-04-30T10:56:05.503Z,2.20
2019-04-30T10:57:05.468Z,3.90
2019-04-30T10:58:05.464Z,2.00
2019-04-30T10:59:05.493Z,2.20
2019-04-30T11:00:07.764Z,2.60
2019-04-30T11:01:05.432Z,2.90
2019-04-30T11:02:05.424Z,2.50
2019-04-30T11:03:17.229Z,2.00
2019-04-30T11:04:06.418Z,2.80
2019-04-30T11:05:05.384Z,2.00
2019-04-30T11:06:05.375Z,2.30
2019-04-30T11:07:05.371Z,4.50
2019-04-30T11:08:05.346Z,2.00
2019-04-30T11:09:05.366Z,2.00
2019-04-30T11:10:05.349Z,2.70
2019-04-30T11:11:05.320Z,3.60
2019-04-30T11:12:05.304Z,2.50
2019-04-30T11:13:05.313Z,5.50
2019-04-30T11:14:05.286Z,3.20
2019-04-30T11:15:05.304Z,2.40
2019-04-30T11:16:12.525Z,3.40
2019-04-30T11:17:06.541Z,2.00
2019-04-30T11:18:05.387Z,2.90
2019-04-30T11:19:05.490Z,2.50
2019-04-30T11:20:05.296Z,3.70
2019-04-30T11:21:05.305Z,2.10
2019-04-30T11:22:05.364Z,3.50
2019-04-30T11:23:14.113Z,2.00
2019-04-30T11:24:06.317Z,4.70
2019-04-30T11:25:05.413Z,2.70
2019-04-30T11:26:05.498Z,2.40
2019-04-30T11:27:05.677Z,2.90
2019-04-30T11:28:05.930Z,1.90
2019-04-30T11:29:05.363Z,2.60
2019-04-30T11:30:17.719Z,3.00
2019-04-30T11:31:06.330Z,4.70
2019-04-30T11:32:05.377Z,2.50
2019-04-30T11:33:05.315Z,2.10
2019-04-30T11:34:05.073Z,2.30
2019-04-30T11:35:05.077Z,3.70
2019-04-30T11:36:05.204Z,2.50
2019-04-30T11:37:05.052Z,4.40
2019-04-30T11:38:05.039Z,3.70
2019-04-30T11:39:05.033Z,4.00
2019-04-30T11:40:05.031Z,3.50
2019-04-30T11:41:04.997Z,3.80
2019-04-30T11:42:04.994Z,3.90
2019-04-30T11:43:04.985Z,2.10
2019-04-30T11:44:04.976Z,2.50
2019-04-30T11:45:05.044Z,2.90
2019-04-30T11:46:04.945Z,2.40
2019-04-30T11:47:04.954Z,3.70
2019-04-30T11:48:05.021Z,2.60
2019-04-30T11:49:04.921Z,3.40
2019-04-30T11:50:05.024Z,2.80
2019-04-30T11:51:04.942Z,3.10
2019-04-30T11:52:04.921Z,3.40
2019-04-30T11:53:19.488Z,3.40
2019-04-30T11:54:05.934Z,3.00
2019-04-30T11:55:04.897Z,4.20
2019-04-30T11:56:04.874Z,4.80
2019-04-30T11:57:04.837Z,4.70
2019-04-30T11:58:04.820Z,3.80
2019-04-30T11:59:04.811Z,3.40
2019-04-30T12:00:04.818Z,5.50
2019-04-30T12:01:04.816Z,4.60
2019-04-30T12:02:04.780Z,5.40
2019-04-30T12:03:04.778Z,3.80
2019-04-30T12:04:04.761Z,5.10
2019-04-30T12:05:05.292Z,4.50
2019-04-30T12:06:04.761Z,4.50
2019-04-30T12:07:04.724Z,5.70
2019-04-30T12:08:04.714Z,3.70
2019-04-30T12:09:04.710Z,3.30
2019-04-30T12:10:04.708Z,3.50
2019-04-30T12:11:04.696Z,5.30
2019-04-30T12:12:04.671Z,3.40
2019-04-30T12:13:04.676Z,2.60
2019-04-30T12:14:04.651Z,3.90
2019-04-30T12:15:04.648Z,5.20
2019-04-30T12:16:04.649Z,4.10
2019-04-30T12:17:04.622Z,3.80
2019-04-30T12:18:04.608Z,5.10
2019-04-30T12:19:04.603Z,7.10
2019-04-30T12:20:04.583Z,4.20
2019-04-30T12:21:04.594Z,5.80
2019-04-30T12:22:04.568Z,5.00
2019-04-30T12:23:04.560Z,6.70
2019-04-30T12:24:04.548Z,4.30
2019-04-30T12:25:05.431Z,4.60
2019-04-30T12:26:04.537Z,7.50
2019-04-30T12:27:04.518Z,5.00
2019-04-30T12:28:04.508Z,4.60
2019-04-30T12:29:04.496Z,3.20
2019-04-30T12:30:04.483Z,2.40
2019-04-30T12:31:06.013Z,5.50
2019-04-30T12:32:04.462Z,3.50
2019-04-30T12:33:04.452Z,3.40
2019-04-30T12:34:04.444Z,5.50
2019-04-30T12:35:04.431Z,4.10
2019-04-30T12:36:06.385Z,9.80
2019-04-30T12:37:04.411Z,5.60
2019-04-30T12:38:04.395Z,5.50
2019-04-30T12:39:04.405Z,8.90
2019-04-30T12:40:04.379Z,6.30
2019-04-30T12:41:04.390Z,8.20
2019-04-30T12:42:04.354Z,5.20
2019-04-30T12:43:04.344Z,6.10
2019-04-30T12:44:04.332Z,4.30
2019-04-30T12:45:04.326Z,5.10
2019-04-30T12:46:05.559Z,3.20
2019-04-30T12:47:04.306Z,5.30
2019-04-30T12:48:04.302Z,5.90
2019-04-30T12:49:04.290Z,4.60
2019-04-30T12:50:04.268Z,3.50
2019-04-30T12:51:04.269Z,4.00
2019-04-30T12:52:04.245Z,4.00
2019-04-30T12:53:04.239Z,5.30
2019-04-30T12:54:04.224Z,8.10
2019-04-30T12:55:14.961Z,11.70
2019-04-30T12:56:05.251Z,8.00
2019-04-30T12:57:04.197Z,5.70
2019-04-30T12:58:04.185Z,7.00
2019-04-30T12:59:04.177Z,9.50
2019-04-30T13:00:04.165Z,8.20
2019-04-30T13:01:04.177Z,6.00
2019-04-30T13:02:04.347Z,8.70
2019-04-30T13:03:04.135Z,6.10
2019-04-30T13:04:04.124Z,7.70
2019-04-30T13:05:04.139Z,6.00
2019-04-30T13:06:04.746Z,3.90
2019-04-30T13:07:04.693Z,6.20
2019-04-30T13:08:04.853Z,5.80
2019-04-30T13:09:04.685Z,4.00
2019-04-30T13:10:04.619Z,4.20
2019-04-30T13:11:04.656Z,4.90
2019-04-30T13:12:04.413Z,5.50
2019-04-30T13:13:04.409Z,4.60
2019-04-30T13:14:04.599Z,4.50
2019-04-30T13:15:04.021Z,5.40
2019-04-30T13:16:04.000Z,5.20
2019-04-30T13:17:04.010Z,5.70